CheckWX is a tool to help pilots better visualize weather data.  It is not intended as a substitute for an official pre-flight weather briefing.

15:33:13 UTC

EGPN TAF
Dundee Airport
Dundee, United Kingdom
TAF EGPN 211357Z 2115/2121 24018G28KT 9999 SCT020 TEMPO 2115/2121 24027G40KT 6000 RA BKN011

Feb-21@
15:00 UTC

Feb-21 @ 15:00 UTC

Feb-21@
21:00 UTC

Feb-21 @ 21:00 UTC

TAF EGPN 211357Z 2115/2121 24018G28KT 9999 SCT020
Wind
  • 240° at 18 KTS
  • {Gusting to 28 KTS
Cloud Levels
  • Scattered at 2,000' AGL

Feb-21@
15:00 UTC

Feb-21 @ 15:00 UTC

Feb-21@
21:00 UTC

Feb-21 @ 21:00 UTC

TEMPO 2115/2121 24027G40KT 6000 RA BKN011

Temporary

Temporary Changes expected for less than half the time period

Wind
  • 240° at 27 KTS
  • {Gusting to 40 KTS
Conditions
Rain
Cloud Levels
  • Broken at 1,100' AGL